Time;durP1;ratioP1;P1;durP2;ratioP2;P2;SDS_P1;SDS_P2;PMS_P1;PMS_P2;Temp;Humidity;BMP_temperature;BMP_pressure;BME280_temperature;BME280_humidity;BME280_pressure;Samples;Min_cycle;Max_cycle;Signal;HPM_P1;HPM_P2
2022/01/24 00:00:24;;;;;;;30.20;17.45;;;;;;;;;;5021647;28;20030;-58
2022/01/24 00:02:50;;;;;;;25.95;16.27;;;;;;;;;;5024391;28;20033;-57
2022/01/24 00:05:19;;;;;;;27.23;16.67;;;;;;;;;;5024014;28;20033;-58
2022/01/24 00:07:45;;;;;;;24.67;16.45;;;;;;;;;;5023458;28;20037;-56
2022/01/24 00:10:16;;;;;;;24.95;16.60;;;;;;;;;;5026050;28;20034;-58
2022/01/24 00:13:00;;;;;;;22.48;15.82;;;;;;;;;;5024575;28;20104;-58
2022/01/24 00:18:14;;;;;;;24.30;15.50;;;;;;;;;;5018925;28;20040;-58
2022/01/24 00:26:46;;;;;;;21.20;15.48;;;;;;;;;;5034781;28;20037;-59
2022/01/24 00:29:15;;;;;;;21.40;15.48;;;;;;;;;;5032897;28;20056;-56
2022/01/24 00:31:41;;;;;;;26.55;15.02;;;;;;;;;;5031107;28;20220;-57
2022/01/24 00:34:07;;;;;;;24.15;14.95;;;;;;;;;;5036391;28;20095;-58
2022/01/24 00:36:33;;;;;;;21.80;15.70;;;;;;;;;;5040382;28;20032;-58
2022/01/24 00:38:59;;;;;;;26.90;15.50;;;;;;;;;;5031469;28;20025;-57
2022/01/24 00:41:25;;;;;;;23.00;14.82;;;;;;;;;;5031809;28;20043;-58
2022/01/24 00:46:34;;;;;;;20.88;15.10;;;;;;;;;;5038517;28;20037;-58
2022/01/24 00:57:01;;;;;;;23.92;15.73;;;;;;;;;;5034438;28;20425;-58
2022/01/24 00:59:27;;;;;;;29.15;16.33;;;;;;;;;;5025820;28;20522;-53
2022/01/24 01:01:53;;;;;;;19.50;14.80;;;;;;;;;;5025656;28;20041;-57
2022/01/24 01:04:24;;;;;;;23.63;15.25;;;;;;;;;;5016259;28;20069;-57
2022/01/24 01:06:50;;;;;;;22.52;14.95;;;;;;;;;;5021511;28;20033;-55
2022/01/24 01:20:18;;;;;;;27.10;15.80;;;;;;;;;;5026426;28;20145;-58
2022/01/24 01:22:44;;;;;;;22.40;15.00;;;;;;;;;;5022817;28;20037;-58
2022/01/24 01:25:10;;;;;;;22.88;17.23;;;;;;;;;;5020840;28;20072;-59
2022/01/24 01:27:41;;;;;;;26.92;16.48;;;;;;;;;;5022679;28;20041;-59
2022/01/24 01:30:24;;;;;;;25.77;16.20;;;;;;;;;;5029284;28;20207;-59
2022/01/24 01:35:37;;;;;;;23.88;16.63;;;;;;;;;;5023902;28;19935;-58
2022/01/24 01:57:15;;;;;;;23.33;16.33;;;;;;;;;;5019185;28;20041;-57
2022/01/24 01:59:42;;;;;;;27.40;15.93;;;;;;;;;;5026026;28;20975;-54
2022/01/24 02:02:08;;;;;;;25.13;15.50;;;;;;;;;;5029101;28;20561;-57
2022/01/24 02:04:33;;;;;;;23.48;15.73;;;;;;;;;;5026703;28;20025;-58
2022/01/24 02:07:00;;;;;;;21.73;15.45;;;;;;;;;;5022348;28;20151;-58
2022/01/24 02:09:31;;;;;;;19.95;15.05;;;;;;;;;;5022071;28;20592;-59
2022/01/24 02:11:57;;;;;;;23.02;14.63;;;;;;;;;;5020018;28;20033;-57
2022/01/24 02:14:33;;;;;;;21.95;14.30;;;;;;;;;;5025148;28;20539;-57
2022/01/24 02:17:05;;;;;;;23.73;13.93;;;;;;;;;;5022580;28;20049;-56
2022/01/24 02:24:41;;;;;;;19.35;14.02;;;;;;;;;;5022198;28;20025;-59
2022/01/24 02:27:08;;;;;;;28.25;12.93;;;;;;;;;;5024767;28;20037;-59
2022/01/24 02:32:13;;;;;;;19.20;12.80;;;;;;;;;;5021905;28;20044;-58
2022/01/24 02:34:42;;;;;;;20.02;12.57;;;;;;;;;;5017746;28;20025;-58
2022/01/24 02:37:14;;;;;;;19.55;13.73;;;;;;;;;;5017360;28;20041;-57
2022/01/24 02:48:26;;;;;;;17.77;12.02;;;;;;;;;;5019213;28;20100;-57
2022/01/24 02:53:35;;;;;;;23.00;13.20;;;;;;;;;;5021853;28;20045;-58
2022/01/24 02:56:02;;;;;;;18.27;12.70;;;;;;;;;;5023258;28;20471;-57
2022/01/24 02:58:28;;;;;;;21.40;12.60;;;;;;;;;;5021904;28;20382;-59
2022/01/24 03:00:54;;;;;;;23.85;13.95;;;;;;;;;;5020587;28;20030;-57
2022/01/24 03:03:21;;;;;;;22.45;12.25;;;;;;;;;;5019619;28;20490;-57
2022/01/24 03:05:46;;;;;;;18.38;12.02;;;;;;;;;;5019448;28;20074;-58
2022/01/24 03:08:14;;;;;;;19.73;12.57;;;;;;;;;;5019505;28;20116;-56
2022/01/24 03:10:44;;;;;;;16.63;12.80;;;;;;;;;;5023233;28;20584;-58
2022/01/24 03:15:44;;;;;;;19.25;12.38;;;;;;;;;;5022145;28;20041;-59
2022/01/24 03:18:10;;;;;;;16.77;11.60;;;;;;;;;;5023578;28;20148;-59
2022/01/24 03:20:37;;;;;;;19.83;12.88;;;;;;;;;;5024983;28;20081;-58
2022/01/24 03:23:03;;;;;;;20.80;12.15;;;;;;;;;;5024853;28;20558;-57
2022/01/24 03:25:29;;;;;;;14.25;11.38;;;;;;;;;;5022072;28;20100;-58
2022/01/24 03:27:55;;;;;;;18.88;12.15;;;;;;;;;;5019882;28;20482;-58
2022/01/24 03:30:22;;;;;;;18.55;12.23;;;;;;;;;;5026658;28;20036;-56
2022/01/24 03:32:48;;;;;;;19.98;12.48;;;;;;;;;;5019005;28;20037;-58
2022/01/24 03:35:13;;;;;;;21.05;11.88;;;;;;;;;;5024417;28;20029;-58
2022/01/24 03:37:39;;;;;;;17.90;11.48;;;;;;;;;;5020727;28;20037;-58
2022/01/24 03:40:06;;;;;;;19.25;12.02;;;;;;;;;;5023139;28;20730;-56
2022/01/24 03:42:32;;;;;;;18.45;11.35;;;;;;;;;;5019870;28;20099;-58
2022/01/24 03:45:01;;;;;;;19.92;11.35;;;;;;;;;;5018304;28;20030;-58
2022/01/24 03:50:01;;;;;;;18.67;12.10;;;;;;;;;;5020211;28;20056;-55
2022/01/24 03:52:31;;;;;;;16.50;11.15;;;;;;;;;;5020308;28;20464;-57
2022/01/24 03:54:59;;;;;;;18.27;11.60;;;;;;;;;;5021856;28;20045;-55
2022/01/24 03:57:25;;;;;;;19.77;11.10;;;;;;;;;;5020627;28;20040;-56
2022/01/24 03:59:51;;;;;;;14.88;10.55;;;;;;;;;;5020737;28;20088;-55
2022/01/24 04:02:20;;;;;;;16.83;10.20;;;;;;;;;;5022733;28;20061;-58
2022/01/24 04:04:46;;;;;;;17.38;11.30;;;;;;;;;;5019066;28;20060;-58
2022/01/24 04:07:12;;;;;;;17.27;11.20;;;;;;;;;;5015991;28;20034;-58
2022/01/24 04:09:40;;;;;;;16.73;10.95;;;;;;;;;;5015704;28;20463;-56
2022/01/24 04:12:07;;;;;;;13.27;10.32;;;;;;;;;;5022867;28;20060;-58
2022/01/24 04:17:19;;;;;;;14.88;10.13;;;;;;;;;;5020135;28;20032;-58
2022/01/24 04:22:31;;;;;;;14.93;10.02;;;;;;;;;;5025623;28;20065;-55
2022/01/24 04:25:03;;;;;;;12.98;9.88;;;;;;;;;;5021775;28;20034;-59
2022/01/24 04:27:29;;;;;;;14.20;10.27;;;;;;;;;;5018884;28;20026;-57
2022/01/24 04:29:56;;;;;;;18.25;10.60;;;;;;;;;;5024546;28;20029;-58
2022/01/24 04:32:22;;;;;;;22.65;10.00;;;;;;;;;;5020494;28;20446;-58
2022/01/24 04:34:49;;;;;;;13.85;9.98;;;;;;;;;;5019116;28;20040;-58
2022/01/24 04:37:16;;;;;;;13.98;10.00;;;;;;;;;;5016531;28;20505;-58
2022/01/24 04:39:43;;;;;;;14.05;9.35;;;;;;;;;;5018689;28;20048;-59
2022/01/24 04:42:15;;;;;;;14.40;9.48;;;;;;;;;;5017172;28;20049;-58
2022/01/24 04:45:27;;;;;;;18.77;9.55;;;;;;;;;;5019195;28;20026;-57
2022/01/24 04:47:49;;;;;;;13.80;9.00;;;;;;;;;;5021042;28;20136;-58
2022/01/24 04:52:55;;;;;;;14.23;9.30;;;;;;;;;;5016981;28;20382;-58
2022/01/24 04:55:21;;;;;;;13.10;9.57;;;;;;;;;;5019923;28;20466;-58
2022/01/24 04:57:47;;;;;;;22.65;10.30;;;;;;;;;;5022606;28;20029;-59
2022/01/24 05:00:14;;;;;;;16.65;9.65;;;;;;;;;;5017485;28;20088;-59
2022/01/24 05:02:40;;;;;;;14.95;10.25;;;;;;;;;;5021774;28;20505;-58
2022/01/24 05:05:09;;;;;;;15.27;8.93;;;;;;;;;;5023651;28;20041;-58
2022/01/24 05:07:35;;;;;;;15.30;8.82;;;;;;;;;;5024326;28;20029;-57
2022/01/24 05:21:10;;;;;;;14.75;9.18;;;;;;;;;;5023638;28;20026;-59
2022/01/24 05:25:52;;;;;;;13.35;8.30;;;;;;;;;;5018047;28;20056;-59
2022/01/24 05:28:19;;;;;;;15.25;9.23;;;;;;;;;;5016722;28;20036;-58
2022/01/24 05:30:45;;;;;;;11.57;8.60;;;;;;;;;;5015772;28;20120;-58
2022/01/24 05:33:10;;;;;;;12.93;8.65;;;;;;;;;;5023747;28;20030;-58
2022/01/24 05:35:36;;;;;;;13.40;8.60;;;;;;;;;;5020969;28;20112;-57
2022/01/24 05:38:03;;;;;;;10.75;8.27;;;;;;;;;;5021733;28;20101;-59
2022/01/24 05:40:29;;;;;;;13.15;8.57;;;;;;;;;;5022068;28;20030;-57
2022/01/24 05:42:54;;;;;;;10.55;7.78;;;;;;;;;;5019372;28;20033;-58
2022/01/24 05:45:20;;;;;;;9.18;7.70;;;;;;;;;;5020387;28;20041;-58
2022/01/24 05:47:45;;;;;;;10.85;8.35;;;;;;;;;;5023383;28;20114;-58
2022/01/24 05:50:11;;;;;;;9.48;6.93;;;;;;;;;;5023687;28;20590;-59
2022/01/24 05:52:37;;;;;;;9.98;7.05;;;;;;;;;;5018691;28;20363;-57
2022/01/24 05:55:04;;;;;;;9.07;7.25;;;;;;;;;;5019340;28;20461;-58
2022/01/24 05:57:30;;;;;;;8.88;7.65;;;;;;;;;;5020121;28;20397;-58
2022/01/24 05:59:56;;;;;;;11.13;7.82;;;;;;;;;;5022175;28;20025;-58
2022/01/24 06:02:23;;;;;;;8.70;7.15;;;;;;;;;;5024250;28;20128;-58
2022/01/24 06:04:49;;;;;;;12.45;7.60;;;;;;;;;;5023026;28;20112;-58
2022/01/24 06:07:15;;;;;;;12.30;7.22;;;;;;;;;;5022783;28;20473;-59
2022/01/24 06:09:41;;;;;;;11.02;7.00;;;;;;;;;;5016092;28;20030;-59
2022/01/24 06:12:07;;;;;;;14.52;7.40;;;;;;;;;;5024645;28;20788;-58
2022/01/24 06:14:33;;;;;;;9.43;7.05;;;;;;;;;;5026275;28;20080;-58
2022/01/24 06:16:58;;;;;;;12.80;7.35;;;;;;;;;;5021878;28;20029;-58
2022/01/24 06:19:24;;;;;;;12.38;7.43;;;;;;;;;;5021096;28;20042;-56
2022/01/24 06:21:50;;;;;;;8.23;6.47;;;;;;;;;;5024888;28;20034;-58
2022/01/24 06:24:16;;;;;;;12.25;6.97;;;;;;;;;;5022827;28;20482;-56
2022/01/24 06:26:43;;;;;;;15.52;6.82;;;;;;;;;;5021546;28;20544;-58
2022/01/24 06:29:11;;;;;;;9.65;6.78;;;;;;;;;;5017581;28;20041;-59
2022/01/24 06:31:37;;;;;;;9.65;6.72;;;;;;;;;;5022598;28;20025;-57
2022/01/24 06:34:03;;;;;;;11.27;6.80;;;;;;;;;;5027952;28;20104;-54
2022/01/24 06:36:28;;;;;;;7.38;6.20;;;;;;;;;;5021553;28;20732;-56
2022/01/24 06:38:54;;;;;;;9.27;7.05;;;;;;;;;;5023920;28;20040;-56
2022/01/24 06:41:26;;;;;;;9.43;6.47;;;;;;;;;;5017965;28;20111;-59
2022/01/24 06:43:52;;;;;;;9.48;6.20;;;;;;;;;;5024082;28;20052;-57
2022/01/24 06:46:18;;;;;;;10.02;6.65;;;;;;;;;;5021719;28;21032;-58
2022/01/24 06:48:47;;;;;;;8.38;6.72;;;;;;;;;;5022508;28;20046;-57
2022/01/24 06:51:13;;;;;;;8.75;6.72;;;;;;;;;;5021714;28;20033;-55
2022/01/24 06:53:40;;;;;;;10.10;6.63;;;;;;;;;;5027625;28;20087;-58
2022/01/24 06:56:07;;;;;;;10.80;6.93;;;;;;;;;;5022803;28;20065;-58
2022/01/24 06:58:33;;;;;;;9.30;6.57;;;;;;;;;;5023695;28;20524;-56
2022/01/24 07:00:59;;;;;;;11.10;7.43;;;;;;;;;;5017710;28;20025;-56
2022/01/24 07:03:25;;;;;;;12.15;7.25;;;;;;;;;;5021861;28;20083;-58
2022/01/24 07:05:51;;;;;;;13.38;7.70;;;;;;;;;;5016161;28;20105;-58
2022/01/24 07:08:17;;;;;;;12.00;7.97;;;;;;;;;;5019314;28;20535;-56
2022/01/24 07:10:43;;;;;;;12.48;7.80;;;;;;;;;;5022279;28;20025;-57
2022/01/24 07:13:08;;;;;;;9.45;7.63;;;;;;;;;;5023078;28;20025;-57
2022/01/24 07:15:40;;;;;;;13.77;7.30;;;;;;;;;;5022846;28;20033;-57
2022/01/24 07:20:35;;;;;;;8.82;7.93;;;;;;;;;;5017611;28;20049;-55
2022/01/24 07:23:04;;;;;;;12.43;7.70;;;;;;;;;;5019360;28;20059;-57
2022/01/24 07:25:31;;;;;;;13.80;7.70;;;;;;;;;;5019101;28;20083;-58
2022/01/24 07:27:57;;;;;;;11.73;7.63;;;;;;;;;;5021617;28;20712;-57
2022/01/24 07:30:24;;;;;;;13.57;7.53;;;;;;;;;;5024017;28;20091;-57
2022/01/24 07:32:50;;;;;;;11.98;7.45;;;;;;;;;;5023572;28;20366;-57
2022/01/24 07:35:16;;;;;;;10.82;7.78;;;;;;;;;;5021241;28;20103;-58
2022/01/24 07:37:42;;;;;;;16.02;8.57;;;;;;;;;;5026055;28;20466;-57
2022/01/24 07:40:10;;;;;;;11.52;8.10;;;;;;;;;;5027161;28;20041;-54
2022/01/24 07:45:19;;;;;;;10.77;7.68;;;;;;;;;;5025774;28;20421;-56
2022/01/24 07:47:47;;;;;;;14.80;7.53;;;;;;;;;;5019476;28;20025;-58
2022/01/24 07:50:14;;;;;;;9.88;6.57;;;;;;;;;;5021108;28;20034;-57
2022/01/24 07:52:40;;;;;;;9.85;6.78;;;;;;;;;;5022011;28;20113;-57
2022/01/24 07:55:06;;;;;;;7.80;6.45;;;;;;;;;;5019841;28;20100;-57
2022/01/24 07:57:32;;;;;;;9.82;6.93;;;;;;;;;;5014211;28;20037;-58
2022/01/24 07:59:58;;;;;;;10.35;6.53;;;;;;;;;;5022529;28;20037;-56
2022/01/24 08:02:23;;;;;;;9.80;6.10;;;;;;;;;;5022715;28;20037;-57
2022/01/24 08:04:49;;;;;;;12.93;7.25;;;;;;;;;;5020964;28;20037;-59
2022/01/24 08:07:15;;;;;;;8.43;5.95;;;;;;;;;;5016778;28;20124;-58
2022/01/24 08:09:40;;;;;;;10.13;6.00;;;;;;;;;;5019506;28;20116;-56
2022/01/24 08:12:07;;;;;;;8.50;6.25;;;;;;;;;;5019572;28;20053;-58
2022/01/24 08:14:32;;;;;;;8.23;6.40;;;;;;;;;;5017521;28;20037;-55
2022/01/24 08:17:00;;;;;;;8.43;6.13;;;;;;;;;;5017663;28;20034;-58
2022/01/24 08:19:26;;;;;;;11.95;6.40;;;;;;;;;;5027478;28;20058;-58
2022/01/24 08:21:52;;;;;;;8.23;5.60;;;;;;;;;;5016404;28;20033;-58
2022/01/24 08:24:18;;;;;;;9.35;6.15;;;;;;;;;;5019488;28;20060;-55
2022/01/24 08:26:43;;;;;;;7.93;5.68;;;;;;;;;;5019449;28;20458;-58
2022/01/24 08:29:09;;;;;;;8.05;5.60;;;;;;;;;;5020081;28;20029;-59
2022/01/24 08:31:37;;;;;;;11.45;6.50;;;;;;;;;;5022097;28;20513;-59
2022/01/24 08:34:02;;;;;;;11.13;6.20;;;;;;;;;;5022425;28;20041;-59
2022/01/24 08:36:28;;;;;;;11.82;6.10;;;;;;;;;;5021825;28;20500;-57
2022/01/24 08:38:57;;;;;;;10.25;6.80;;;;;;;;;;5021648;28;20041;-58
2022/01/24 08:47:42;;;;;;;6.70;5.47;;;;;;;;;;5020661;28;20036;-56
2022/01/24 08:50:27;;;;;;;9.68;5.60;;;;;;;;;;5023660;28;20084;-56
2022/01/24 08:53:03;;;;;;;8.38;5.60;;;;;;;;;;5018445;28;20116;-57
2022/01/24 08:55:36;;;;;;;6.10;4.90;;;;;;;;;;5019284;28;20486;-57
2022/01/24 08:58:13;;;;;;;7.70;6.22;;;;;;;;;;5017156;28;20036;-56
2022/01/24 09:00:58;;;;;;;8.35;4.97;;;;;;;;;;5016998;28;20045;-55
2022/01/24 09:03:44;;;;;;;6.05;5.10;;;;;;;;;;5017812;28;20573;-57
2022/01/24 09:06:10;;;;;;;6.25;5.28;;;;;;;;;;5018573;28;20044;-56
2022/01/24 09:08:36;;;;;;;7.50;5.38;;;;;;;;;;5014217;28;20029;-59
2022/01/24 09:11:03;;;;;;;8.30;5.40;;;;;;;;;;5017555;28;20065;-59
2022/01/24 09:13:30;;;;;;;7.80;5.22;;;;;;;;;;5020394;28;20037;-57
2022/01/24 09:15:56;;;;;;;9.10;5.25;;;;;;;;;;5017997;28;20040;-57
2022/01/24 09:18:22;;;;;;;12.55;5.57;;;;;;;;;;5019062;28;20033;-58
2022/01/24 09:20:51;;;;;;;9.35;5.38;;;;;;;;;;5024117;28;20041;-58
2022/01/24 09:23:17;;;;;;;7.07;5.20;;;;;;;;;;5019952;28;20139;-59
2022/01/24 09:25:43;;;;;;;10.27;5.70;;;;;;;;;;5017150;28;20444;-58
2022/01/24 09:28:09;;;;;;;8.10;5.78;;;;;;;;;;5019640;28;20017;-59
2022/01/24 09:30:35;;;;;;;22.27;9.75;;;;;;;;;;5017656;28;20510;-57
2022/01/24 09:33:00;;;;;;;21.98;11.40;;;;;;;;;;5025047;28;20022;-57
2022/01/24 09:35:28;;;;;;;17.88;10.57;;;;;;;;;;5021089;28;20773;-58
2022/01/24 09:37:54;;;;;;;21.98;12.35;;;;;;;;;;5028141;28;20105;-59
2022/01/24 09:40:20;;;;;;;28.52;14.52;;;;;;;;;;5020897;28;20114;-58
2022/01/24 09:42:47;;;;;;;22.08;15.45;;;;;;;;;;5019047;28;21082;-60
2022/01/24 09:45:14;;;;;;;30.45;19.10;;;;;;;;;;5026373;28;20029;-59
2022/01/24 09:47:40;;;;;;;33.45;21.75;;;;;;;;;;5022317;28;20100;-60
2022/01/24 09:50:08;;;;;;;36.15;24.80;;;;;;;;;;5022482;28;20037;-57
2022/01/24 09:52:34;;;;;;;43.20;26.75;;;;;;;;;;5021645;28;20486;-57
2022/01/24 09:55:00;;;;;;;44.03;25.90;;;;;;;;;;5024885;28;20036;-58
2022/01/24 09:57:28;;;;;;;41.35;25.10;;;;;;;;;;5024280;28;20040;-57
2022/01/24 09:59:55;;;;;;;36.78;24.30;;;;;;;;;;5021755;28;20168;-56
2022/01/24 10:02:24;;;;;;;34.83;23.02;;;;;;;;;;5019849;28;20034;-55
2022/01/24 10:04:49;;;;;;;35.88;24.88;;;;;;;;;;5021815;28;20038;-58
2022/01/24 10:07:16;;;;;;;47.15;27.38;;;;;;;;;;5022177;28;20044;-58
2022/01/24 10:09:44;;;;;;;38.28;26.48;;;;;;;;;;5020858;28;20045;-58
2022/01/24 10:12:28;;;;;;;42.85;26.90;;;;;;;;;;5025110;28;20162;-58
2022/01/24 10:17:42;;;;;;;40.05;26.63;;;;;;;;;;5022507;28;20032;-57
2022/01/24 10:20:23;;;;;;;41.33;27.77;;;;;;;;;;5021543;28;20124;-59
2022/01/24 10:23:04;;;;;;;39.30;26.02;;;;;;;;;;5017600;28;20041;-57
2022/01/24 10:25:31;;;;;;;40.30;26.92;;;;;;;;;;5019597;28;20053;-59
2022/01/24 10:28:02;;;;;;;36.88;25.00;;;;;;;;;;5017566;28;20060;-60
2022/01/24 10:30:28;;;;;;;45.63;26.15;;;;;;;;;;5025120;28;20394;-58
2022/01/24 10:32:55;;;;;;;35.75;24.00;;;;;;;;;;5021179;28;20040;-58
2022/01/24 10:35:40;;;;;;;34.40;24.08;;;;;;;;;;5019787;28;20782;-59
2022/01/24 10:41:23;;;;;;;40.60;23.55;;;;;;;;;;5018280;28;20037;-58
2022/01/24 10:43:52;;;;;;;45.30;26.45;;;;;;;;;;5022355;28;20058;-59
2022/01/24 10:46:27;;;;;;;47.33;26.15;;;;;;;;;;5019030;28;20044;-59
2022/01/24 10:49:06;;;;;;;38.80;26.30;;;;;;;;;;5021585;28;20032;-59
2022/01/24 10:51:51;;;;;;;58.85;30.38;;;;;;;;;;5025324;28;20112;-59
2022/01/24 10:54:28;;;;;;;44.58;29.15;;;;;;;;;;5020813;28;20029;-58
2022/01/24 10:56:54;;;;;;;47.33;30.00;;;;;;;;;;5024084;28;20053;-58
2022/01/24 10:59:22;;;;;;;41.03;27.85;;;;;;;;;;5021661;28;20058;-59
2022/01/24 11:01:57;;;;;;;47.72;28.30;;;;;;;;;;5024438;28;20029;-59
2022/01/24 11:04:26;;;;;;;40.47;26.90;;;;;;;;;;5021801;28;20061;-59
2022/01/24 11:06:58;;;;;;;42.08;27.10;;;;;;;;;;5023193;28;20029;-57
2022/01/24 11:09:26;;;;;;;42.15;28.45;;;;;;;;;;5023531;28;20055;-58
2022/01/24 11:12:13;;;;;;;42.60;27.00;;;;;;;;;;5020458;28;20117;-59
2022/01/24 11:14:44;;;;;;;53.30;27.88;;;;;;;;;;5018859;28;20071;-60
2022/01/24 11:17:14;;;;;;;49.25;28.75;;;;;;;;;;5023433;28;20049;-59
2022/01/24 11:19:46;;;;;;;43.67;27.70;;;;;;;;;;5020762;28;20054;-59
2022/01/24 11:22:20;;;;;;;42.53;26.15;;;;;;;;;;5019229;28;20037;-58
2022/01/24 11:24:55;;;;;;;34.20;26.13;;;;;;;;;;5023080;28;20099;-59
2022/01/24 11:27:21;;;;;;;51.88;30.25;;;;;;;;;;5018398;28;20490;-57
2022/01/24 11:29:53;;;;;;;55.03;27.88;;;;;;;;;;5021149;28;20050;-59
2022/01/24 11:32:31;;;;;;;41.75;26.38;;;;;;;;;;5024006;28;20037;-58
2022/01/24 11:34:58;;;;;;;47.00;27.35;;;;;;;;;;5016942;28;20038;-59
2022/01/24 11:37:50;;;;;;;45.22;26.00;;;;;;;;;;5020677;28;20044;-59
2022/01/24 11:40:19;;;;;;;36.78;26.60;;;;;;;;;;5021310;28;20045;-59
2022/01/24 11:42:47;;;;;;;39.97;25.27;;;;;;;;;;5023723;28;20037;-59
2022/01/24 11:45:17;;;;;;;36.20;25.13;;;;;;;;;;5019338;28;20029;-58
2022/01/24 11:47:46;;;;;;;39.08;27.85;;;;;;;;;;5017650;28;20053;-59
2022/01/24 11:50:23;;;;;;;85.18;28.98;;;;;;;;;;5025667;28;20029;-59
2022/01/24 11:52:54;;;;;;;100.78;30.23;;;;;;;;;;5017396;28;20029;-59
2022/01/24 11:55:36;;;;;;;48.63;26.88;;;;;;;;;;5020604;28;20029;-59
2022/01/24 11:58:07;;;;;;;33.63;21.70;;;;;;;;;;5020429;28;20044;-59
2022/01/24 12:00:44;;;;;;;32.60;20.73;;;;;;;;;;5024178;28;20040;-58
2022/01/24 12:03:29;;;;;;;39.60;21.33;;;;;;;;;;5020313;28;20041;-59
2022/01/24 12:06:09;;;;;;;30.90;19.92;;;;;;;;;;5022899;28;20064;-59
2022/01/24 12:08:43;;;;;;;31.40;21.33;;;;;;;;;;5020124;28;20672;-59
2022/01/24 12:11:27;;;;;;;29.70;20.35;;;;;;;;;;5023658;28;20032;-59
2022/01/24 12:14:00;;;;;;;27.75;18.25;;;;;;;;;;5020090;28;20033;-59
2022/01/24 12:16:57;;;;;;;27.58;18.08;;;;;;;;;;5022802;28;20087;-58
2022/01/24 12:19:31;;;;;;;26.15;16.83;;;;;;;;;;5015227;28;20042;-59
2022/01/24 12:21:57;;;;;;;22.13;16.33;;;;;;;;;;5017664;28;20056;-60
2022/01/24 12:24:43;;;;;;;27.40;18.13;;;;;;;;;;5024023;28;20451;-59
2022/01/24 12:27:09;;;;;;;29.30;15.80;;;;;;;;;;5016687;28;20125;-59
2022/01/24 12:29:41;;;;;;;22.08;16.38;;;;;;;;;;5024173;28;20450;-59
2022/01/24 12:32:21;;;;;;;22.65;16.33;;;;;;;;;;5023218;28;20040;-60
2022/01/24 12:34:47;;;;;;;23.15;16.30;;;;;;;;;;5018012;28;20037;-58
2022/01/24 12:37:23;;;;;;;21.10;13.95;;;;;;;;;;5014730;28;20086;-59
2022/01/24 12:40:09;;;;;;;45.67;16.20;;;;;;;;;;5016037;28;20033;-59
2022/01/24 12:42:50;;;;;;;25.63;13.88;;;;;;;;;;5022828;28;20037;-60
2022/01/24 12:48:10;;;;;;;28.35;14.50;;;;;;;;;;5021440;28;20021;-59
2022/01/24 12:50:40;;;;;;;25.15;14.82;;;;;;;;;;5022139;28;20466;-59
2022/01/24 12:53:13;;;;;;;27.42;15.48;;;;;;;;;;5025009;28;20033;-59
2022/01/24 12:55:39;;;;;;;21.38;14.77;;;;;;;;;;5021213;28;20530;-60
2022/01/24 12:58:04;;;;;;;18.73;14.85;;;;;;;;;;5018671;28;20132;-59
2022/01/24 13:00:30;;;;;;;21.52;15.85;;;;;;;;;;5019522;28;20092;-59
2022/01/24 13:02:56;;;;;;;31.35;17.67;;;;;;;;;;5018870;28;20048;-59
2022/01/24 13:05:23;;;;;;;31.95;19.05;;;;;;;;;;5024211;28;20036;-59
2022/01/24 13:07:55;;;;;;;27.77;15.93;;;;;;;;;;5023843;28;20032;-59
2022/01/24 13:10:26;;;;;;;25.45;15.25;;;;;;;;;;5024808;28;20033;-59
2022/01/24 13:13:00;;;;;;;24.08;16.17;;;;;;;;;;5026233;28;20069;-59
2022/01/24 13:23:32;;;;;;;24.40;14.63;;;;;;;;;;4998658;28;20137;-59
2022/01/24 13:25:57;;;;;;;18.48;13.20;;;;;;;;;;5000058;28;20693;-59
2022/01/24 13:28:23;;;;;;;27.45;14.18;;;;;;;;;;5000458;28;20030;-59
2022/01/24 13:31:00;;;;;;;23.02;14.70;;;;;;;;;;4998889;28;20034;-57
2022/01/24 13:33:27;;;;;;;20.85;14.10;;;;;;;;;;4998018;28;20030;-59
2022/01/24 13:36:08;;;;;;;24.65;14.77;;;;;;;;;;5000823;28;20034;-59
2022/01/24 13:38:47;;;;;;;30.20;17.65;;;;;;;;;;5001319;28;20034;-59
2022/01/24 13:41:15;;;;;;;27.85;15.85;;;;;;;;;;5004157;28;20026;-59
2022/01/24 13:43:58;;;;;;;29.42;15.30;;;;;;;;;;5004013;28;20513;-58
2022/01/24 13:46:27;;;;;;;18.85;14.27;;;;;;;;;;5001928;28;20038;-59
2022/01/24 13:48:56;;;;;;;17.83;12.80;;;;;;;;;;4999134;28;20044;-59
2022/01/24 13:51:25;;;;;;;25.38;12.27;;;;;;;;;;5005616;28;20165;-59
2022/01/24 13:53:58;;;;;;;30.23;13.80;;;;;;;;;;5002564;28;20057;-59
2022/01/24 13:56:34;;;;;;;25.60;15.10;;;;;;;;;;5023921;28;20117;-60
2022/01/24 13:59:14;;;;;;;20.75;11.88;;;;;;;;;;5027422;28;20042;-59
2022/01/24 14:01:55;;;;;;;23.23;12.73;;;;;;;;;;5018396;28;20033;-59
2022/01/24 14:04:38;;;;;;;22.75;11.23;;;;;;;;;;5022829;28;20029;-59
2022/01/24 14:07:22;;;;;;;17.55;11.68;;;;;;;;;;5020953;28;20037;-59
2022/01/24 14:09:54;;;;;;;24.08;11.52;;;;;;;;;;5022372;28;20399;-59
2022/01/24 14:12:24;;;;;;;;;;;;;;;;;;5020235;28;20561;-58
2022/01/24 14:15:07;;;;;;;20.38;11.65;;;;;;;;;;5023880;28;19978;-59
2022/01/24 14:20:20;;;;;;;19.65;11.90;;;;;;;;;;5021599;28;20064;-59
2022/01/24 14:22:54;;;;;;;19.48;12.60;;;;;;;;;;5018041;28;20038;-58
2022/01/24 14:25:22;;;;;;;21.08;11.98;;;;;;;;;;5025188;28;20034;-59
2022/01/24 14:27:52;;;;;;;20.30;11.02;;;;;;;;;;5022777;28;20019;-58
2022/01/24 14:30:27;;;;;;;23.05;12.60;;;;;;;;;;5020463;28;20487;-59
2022/01/24 14:33:16;;;;;;;18.65;12.02;;;;;;;;;;5023116;28;20140;-59
2022/01/24 14:36:04;;;;;;;15.77;11.48;;;;;;;;;;5025721;28;20059;-59
2022/01/24 14:38:30;;;;;;;20.50;11.88;;;;;;;;;;5026194;28;20037;-59
2022/01/24 14:41:00;;;;;;;17.60;11.93;;;;;;;;;;5024712;28;20024;-59
2022/01/24 14:46:14;;;;;;;17.48;10.85;;;;;;;;;;5017556;28;20034;-58
2022/01/24 14:48:54;;;;;;;17.73;10.80;;;;;;;;;;5023116;28;20034;-59
2022/01/24 14:51:28;;;;;;;19.15;10.75;;;;;;;;;;5022987;28;20040;-59
2022/01/24 14:53:55;;;;;;;17.67;10.75;;;;;;;;;;5021482;28;20033;-60
2022/01/24 14:56:22;;;;;;;14.52;10.27;;;;;;;;;;5024576;28;20504;-60
2022/01/24 14:58:48;;;;;;;21.25;11.60;;;;;;;;;;5022856;28;20083;-60
2022/01/24 15:01:15;;;;;;;15.02;10.43;;;;;;;;;;5020092;28;20026;-60
2022/01/24 15:03:42;;;;;;;18.38;10.30;;;;;;;;;;5019472;28;20405;-60
2022/01/24 15:06:10;;;;;;;17.55;10.00;;;;;;;;;;5025090;28;20087;-59
2022/01/24 15:08:39;;;;;;;15.77;10.77;;;;;;;;;;5025529;28;20428;-59
2022/01/24 15:11:05;;;;;;;19.48;11.57;;;;;;;;;;5022651;28;20421;-59
2022/01/24 15:13:46;;;;;;;17.08;10.85;;;;;;;;;;5020763;28;20021;-60
2022/01/24 15:16:18;;;;;;;20.38;13.02;;;;;;;;;;5023411;28;20037;-59
2022/01/24 15:26:44;;;;;;;19.52;13.05;;;;;;;;;;5023065;28;20112;-59
2022/01/24 15:29:10;;;;;;;22.05;14.30;;;;;;;;;;5022635;28;20492;-59
2022/01/24 15:31:36;;;;;;;18.67;12.75;;;;;;;;;;5019659;28;20025;-59
2022/01/24 15:34:02;;;;;;;23.17;15.00;;;;;;;;;;5018325;28;20037;-59
2022/01/24 15:36:28;;;;;;;22.50;13.63;;;;;;;;;;5022324;28;20038;-60
2022/01/24 15:39:00;;;;;;;23.13;15.20;;;;;;;;;;5017985;28;20056;-60
2022/01/24 15:41:26;;;;;;;31.13;15.50;;;;;;;;;;5017407;28;20107;-59
2022/01/24 15:44:05;;;;;;;22.20;13.88;;;;;;;;;;5022248;28;20053;-58
2022/01/24 15:49:06;;;;;;;29.73;13.45;;;;;;;;;;5019375;28;20167;-59
2022/01/24 15:51:32;;;;;;;23.10;15.00;;;;;;;;;;5023886;28;20084;-59
2022/01/24 15:53:57;;;;;;;23.67;14.07;;;;;;;;;;5021466;28;20040;-60
2022/01/24 15:58:52;;;;;;;27.95;13.68;;;;;;;;;;5018325;28;20017;-60
2022/01/24 16:01:17;;;;;;;21.98;13.57;;;;;;;;;;5019293;28;20030;-60
2022/01/24 16:03:44;;;;;;;25.85;13.68;;;;;;;;;;5023191;28;20111;-59
2022/01/24 16:06:09;;;;;;;27.13;14.35;;;;;;;;;;5022428;28;20168;-59
2022/01/24 16:08:35;;;;;;;21.90;13.75;;;;;;;;;;5020404;28;20500;-59
2022/01/24 16:11:01;;;;;;;37.22;17.35;;;;;;;;;;5020530;28;20478;-59
2022/01/24 16:13:29;;;;;;;37.95;18.05;;;;;;;;;;5022177;28;20099;-60
2022/01/24 16:15:55;;;;;;;33.80;15.65;;;;;;;;;;5021002;28;20036;-60
2022/01/24 16:18:21;;;;;;;31.42;16.48;;;;;;;;;;5015443;28;20083;-59
2022/01/24 16:21:14;;;;;;;27.05;18.00;;;;;;;;;;5017608;28;20254;-58
2022/01/24 16:23:54;;;;;;;32.55;19.38;;;;;;;;;;5023441;28;20061;-59
2022/01/24 16:26:19;;;;;;;37.35;21.67;;;;;;;;;;5022384;28;20412;-60
2022/01/24 16:28:45;;;;;;;36.60;19.05;;;;;;;;;;5018016;28;20022;-60
2022/01/24 16:31:13;;;;;;;32.80;17.23;;;;;;;;;;5022008;28;20526;-60
2022/01/24 16:33:39;;;;;;;33.08;16.30;;;;;;;;;;5020290;28;20041;-60
2022/01/24 16:36:08;;;;;;;27.33;16.83;;;;;;;;;;5021847;28;20103;-60
2022/01/24 16:38:34;;;;;;;37.45;18.85;;;;;;;;;;5016536;28;20125;-59
2022/01/24 16:41:14;;;;;;;31.40;20.52;;;;;;;;;;5015600;28;20113;-60
2022/01/24 16:48:56;;;;;;;49.25;27.58;;;;;;;;;;5022257;28;20036;-60
2022/01/24 16:51:22;;;;;;;45.28;27.75;;;;;;;;;;5022394;28;20053;-58
2022/01/24 16:53:56;;;;;;;61.80;30.75;;;;;;;;;;5021471;28;20525;-59
2022/01/24 16:56:22;;;;;;;55.00;31.45;;;;;;;;;;5020548;28;20120;-60
2022/01/24 16:58:48;;;;;;;57.72;31.48;;;;;;;;;;5019106;28;20800;-60
2022/01/24 17:01:16;;;;;;;57.63;30.38;;;;;;;;;;5020768;28;20025;-59
2022/01/24 17:03:42;;;;;;;127.63;55.20;;;;;;;;;;5016843;28;20112;-60
2022/01/24 17:06:08;;;;;;;121.30;49.78;;;;;;;;;;5018373;28;20500;-59